Time;durP1;ratioP1;P1;durP2;ratioP2;P2;SDS_P1;SDS_P2;PMS_P1;PMS_P2;Temp;Humidity;BMP_temperature;BMP_pressure;BME280_temperature;BME280_humidity;BME280_pressure;Samples;Min_cycle;Max_cycle;Signal;HPM_P1;HPM_P2
2022/08/16 00:02:15;;;;;;;;;;;19.80;99.90;;;;;;5043791;28;20462;-68
2022/08/16 00:04:42;;;;;;;;;;;19.90;99.90;;;;;;5037406;28;19929;-68
2022/08/16 00:07:10;;;;;;;;;;;19.90;99.90;;;;;;5038719;28;20111;-69
2022/08/16 00:09:36;;;;;;;;;;;19.80;99.90;;;;;;5034366;28;19932;-68
2022/08/16 00:12:03;;;;;;;;;;;19.80;99.90;;;;;;5042956;28;20016;-68
2022/08/16 00:14:32;;;;;;;;;;;19.80;99.90;;;;;;5037203;28;19955;-68
2022/08/16 00:16:59;;;;;;;;;;;19.90;99.90;;;;;;5042871;28;20418;-68
2022/08/16 00:19:27;;;;;;;;;;;19.80;99.90;;;;;;5044233;28;19924;-68
2022/08/16 00:21:55;;;;;;;;;;;19.80;99.90;;;;;;5040842;28;20020;-69
2022/08/16 00:24:24;;;;;;;;;;;19.80;99.90;;;;;;5048703;28;19924;-69
2022/08/16 00:26:51;;;;;;;;;;;19.80;99.90;;;;;;5047032;28;19925;-68
2022/08/16 00:29:18;;;;;;;;;;;19.80;99.90;;;;;;5041999;28;19929;-68
2022/08/16 00:31:45;;;;;;;;;;;19.80;99.90;;;;;;5040618;28;20406;-68
2022/08/16 00:34:12;;;;;;;;;;;19.70;99.90;;;;;;5045667;28;19939;-69
2022/08/16 00:36:39;;;;;;;;;;;19.70;99.90;;;;;;5045232;28;19976;-69
2022/08/16 00:39:06;;;;;;;;;;;19.70;99.90;;;;;;5038380;28;20040;-69
2022/08/16 00:41:34;;;;;;;;;;;19.70;99.90;;;;;;5039882;28;20023;-69
2022/08/16 00:44:09;;;;;;;;;;;19.70;99.90;;;;;;5047045;28;20306;-69
2022/08/16 00:46:37;;;;;;;;;;;19.70;99.90;;;;;;5048300;28;19963;-69
2022/08/16 00:49:05;;;;;;;;;;;19.70;99.90;;;;;;5040425;28;20019;-69
2022/08/16 00:51:32;;;;;;;;;;;19.60;99.90;;;;;;5037357;28;20017;-69
2022/08/16 00:53:59;;;;;;;;;;;19.60;99.90;;;;;;5037226;28;20025;-69
2022/08/16 00:56:27;;;;;;;;;;;19.70;99.90;;;;;;5036603;28;20766;-69
2022/08/16 00:58:55;;;;;;;;;;;19.60;99.90;;;;;;5045514;28;19933;-69
2022/08/16 01:01:23;;;;;;;;;;;19.70;99.90;;;;;;5041198;28;19960;-69
2022/08/16 01:03:52;;;;;;;;;;;19.70;99.90;;;;;;5045611;28;19932;-69
2022/08/16 01:06:20;;;;;;;;;;;19.70;99.90;;;;;;5039256;28;20023;-71
2022/08/16 01:08:48;;;;;;;;;;;19.70;99.90;;;;;;5040522;28;19932;-71
2022/08/16 01:11:15;;;;;;;;;;;19.70;99.90;;;;;;5042578;28;20031;-69
2022/08/16 01:13:42;;;;;;;;;;;19.70;99.90;;;;;;5046016;28;19983;-69
2022/08/16 01:16:13;;;;;;;;;;;19.70;99.90;;;;;;5046246;28;19932;-69
2022/08/16 01:18:42;;;;;;;;;;;19.70;99.90;;;;;;5034436;28;19924;-69
2022/08/16 01:21:15;;;;;;;;;;;19.70;99.90;;;;;;5037914;28;19943;-69
2022/08/16 01:23:52;;;;;;;;;;;19.60;99.90;;;;;;5041007;28;19929;-69
2022/08/16 01:26:19;;;;;;;;;;;19.60;99.90;;;;;;5042322;28;19925;-69
2022/08/16 01:28:47;;;;;;;;;;;19.60;99.90;;;;;;5043117;28;19975;-70
2022/08/16 01:31:14;;;;;;;;;;;19.50;99.90;;;;;;5034650;28;19936;-70
2022/08/16 01:33:42;;;;;;;;;;;19.50;99.90;;;;;;5036857;28;20392;-69
2022/08/16 01:36:09;;;;;;;;;;;19.50;99.90;;;;;;5044159;28;20122;-69
2022/08/16 01:38:37;;;;;;;;;;;19.50;99.90;;;;;;5045938;28;19931;-69
2022/08/16 01:41:07;;;;;;;;;;;19.50;99.90;;;;;;5031596;28;19925;-69
2022/08/16 01:43:34;;;;;;;;;;;19.50;99.90;;;;;;5034138;28;20012;-69
2022/08/16 01:46:04;;;;;;;;;;;19.50;99.90;;;;;;5039709;28;19928;-69
2022/08/16 01:48:32;;;;;;;;;;;19.50;99.90;;;;;;5043661;28;19933;-69
2022/08/16 01:50:59;;;;;;;;;;;19.40;99.90;;;;;;5040892;28;20015;-69
2022/08/16 01:53:26;;;;;;;;;;;19.40;99.90;;;;;;5039988;28;19944;-69
2022/08/16 01:55:52;;;;;;;;;;;19.40;99.90;;;;;;5047131;28;20292;-69
2022/08/16 01:58:21;;;;;;;;;;;19.30;99.90;;;;;;5035820;28;20011;-69
2022/08/16 02:00:47;;;;;;;;;;;19.40;99.90;;;;;;5047221;28;19931;-69
2022/08/16 02:03:14;;;;;;;;;;;19.30;99.90;;;;;;5041452;28;20027;-69
2022/08/16 02:05:41;;;;;;;;;;;19.30;99.90;;;;;;5043984;28;19928;-69
2022/08/16 02:08:09;;;;;;;;;;;19.30;99.90;;;;;;5036234;28;20315;-69
2022/08/16 02:10:36;;;;;;;;;;;19.30;99.90;;;;;;5036930;28;20332;-69
2022/08/16 02:13:04;;;;;;;;;;;19.30;99.90;;;;;;5039922;28;19991;-69
2022/08/16 02:15:33;;;;;;;;;;;19.30;99.90;;;;;;5036316;28;20307;-69
2022/08/16 02:18:00;;;;;;;;;;;19.30;99.90;;;;;;5042592;28;19932;-69
2022/08/16 02:20:27;;;;;;;;;;;19.30;99.90;;;;;;5046655;28;19924;-69
2022/08/16 02:22:54;;;;;;;;;;;19.30;99.90;;;;;;5043075;28;20035;-69
2022/08/16 02:25:21;;;;;;;;;;;19.30;99.90;;;;;;5046796;28;20024;-69
2022/08/16 02:27:48;;;;;;;;;;;19.20;99.90;;;;;;5033583;28;19935;-69
2022/08/16 02:30:16;;;;;;;;;;;19.20;99.90;;;;;;5036682;28;19998;-69
2022/08/16 02:32:44;;;;;;;;;;;19.10;99.90;;;;;;5034981;28;20012;-69
2022/08/16 02:35:12;;;;;;;;;;;19.10;99.90;;;;;;5043711;28;23881;-69
2022/08/16 02:37:39;;;;;;;;;;;19.10;99.90;;;;;;5044441;28;20024;-69
2022/08/16 02:40:06;;;;;;;;;;;19.00;99.90;;;;;;5051830;28;19952;-69
2022/08/16 02:42:33;;;;;;;;;;;19.00;99.90;;;;;;5047417;28;19986;-69
2022/08/16 02:45:00;;;;;;;;;;;18.90;99.90;;;;;;5040434;28;19933;-69
2022/08/16 02:47:27;;;;;;;;;;;18.90;99.90;;;;;;5046729;28;20012;-69
2022/08/16 02:49:55;;;;;;;;;;;18.80;99.90;;;;;;5047974;28;19932;-69
2022/08/16 02:52:22;;;;;;;;;;;18.90;99.90;;;;;;5041679;28;19925;-69
2022/08/16 02:54:49;;;;;;;;;;;18.80;99.90;;;;;;5039228;28;20020;-69
2022/08/16 02:57:16;;;;;;;;;;;18.80;99.90;;;;;;5050245;28;20327;-68
2022/08/16 02:59:42;;;;;;;;;;;18.80;99.90;;;;;;5041392;28;19933;-68
2022/08/16 03:02:10;;;;;;;;;;;18.70;99.90;;;;;;5047367;28;20306;-69
2022/08/16 03:04:36;;;;;;;;;;;18.70;99.90;;;;;;5045865;28;19968;-69
2022/08/16 03:07:05;;;;;;;;;;;18.70;99.90;;;;;;5044497;28;19925;-69
2022/08/16 03:09:32;;;;;;;;;;;18.60;99.90;;;;;;5036490;28;20040;-69
2022/08/16 03:11:59;;;;;;;;;;;18.60;99.90;;;;;;5037618;28;19947;-68
2022/08/16 03:14:26;;;;;;;;;;;18.60;99.90;;;;;;5038880;28;19932;-69
2022/08/16 03:16:53;;;;;;;;;;;18.50;99.90;;;;;;5043984;28;20008;-68
2022/08/16 03:19:20;;;;;;;;;;;18.50;99.90;;;;;;5045111;28;19925;-69
2022/08/16 03:21:47;;;;;;;;;;;18.50;99.90;;;;;;5046154;28;20363;-69
2022/08/16 03:24:15;;;;;;;;;;;18.50;99.90;;;;;;5043379;28;19931;-69
2022/08/16 03:26:42;;;;;;;;;;;18.40;99.90;;;;;;5044119;28;19940;-69
2022/08/16 03:29:10;;;;;;;;;;;18.40;99.90;;;;;;5042459;28;19931;-69
2022/08/16 03:31:37;;;;;;;;;;;18.40;99.90;;;;;;5044568;28;20376;-69
2022/08/16 03:34:04;;;;;;;;;;;18.40;99.90;;;;;;5044264;28;19924;-69
2022/08/16 03:36:31;;;;;;;;;;;18.40;99.90;;;;;;5043938;28;19929;-69
2022/08/16 03:38:57;;;;;;;;;;;18.30;99.90;;;;;;5042892;28;19929;-69
2022/08/16 03:41:26;;;;;;;;;;;18.30;99.90;;;;;;5046902;28;20012;-69
2022/08/16 03:43:54;;;;;;;;;;;18.30;99.90;;;;;;5038421;28;20299;-69
2022/08/16 03:46:21;;;;;;;;;;;18.30;99.90;;;;;;5047860;28;19933;-69
2022/08/16 03:48:48;;;;;;;;;;;18.20;99.90;;;;;;5044613;28;19931;-69
2022/08/16 03:51:16;;;;;;;;;;;18.30;99.90;;;;;;5043915;28;19925;-69
2022/08/16 03:53:43;;;;;;;;;;;18.30;99.90;;;;;;5039048;28;19924;-69
2022/08/16 03:56:10;;;;;;;;;;;18.30;99.90;;;;;;5036338;28;19925;-69
2022/08/16 03:58:39;;;;;;;;;;;18.20;99.90;;;;;;5043673;28;20013;-68
2022/08/16 04:01:06;;;;;;;;;;;18.20;99.90;;;;;;5039860;28;19931;-69
2022/08/16 04:03:32;;;;;;;;;;;18.20;99.90;;;;;;5041957;28;20039;-69
2022/08/16 04:05:59;;;;;;;;;;;18.20;99.90;;;;;;5045471;28;20024;-69
2022/08/16 04:08:26;;;;;;;;;;;18.20;99.90;;;;;;5037078;28;19947;-69
2022/08/16 04:10:54;;;;;;;;;;;18.20;99.90;;;;;;5040143;28;20531;-68
2022/08/16 04:13:22;;;;;;;;;;;18.20;99.90;;;;;;5040163;28;19932;-68
2022/08/16 04:15:51;;;;;;;;;;;18.10;99.90;;;;;;5044733;28;19924;-69
2022/08/16 04:18:17;;;;;;;;;;;18.10;99.90;;;;;;5044907;28;20616;-69
2022/08/16 04:20:44;;;;;;;;;;;18.10;99.90;;;;;;5038159;28;20315;-68
2022/08/16 04:23:11;;;;;;;;;;;18.10;99.90;;;;;;5045481;28;19931;-68
2022/08/16 04:25:37;;;;;;;;;;;18.00;99.90;;;;;;5042671;28;19925;-68
2022/08/16 04:28:04;;;;;;;;;;;18.00;99.90;;;;;;5042032;28;20346;-67
2022/08/16 04:30:31;;;;;;;;;;;18.00;99.90;;;;;;5046357;28;19933;-68
2022/08/16 04:32:59;;;;;;;;;;;18.00;99.90;;;;;;5042208;28;19925;-68
2022/08/16 04:35:26;;;;;;;;;;;18.00;99.90;;;;;;5043638;28;20282;-68
2022/08/16 04:37:53;;;;;;;;;;;18.00;99.90;;;;;;5036717;28;20291;-69
2022/08/16 04:40:20;;;;;;;;;;;18.00;99.90;;;;;;5041523;28;19933;-68
2022/08/16 04:42:49;;;;;;;;;;;18.20;99.90;;;;;;5040029;28;19982;-68
2022/08/16 04:45:16;;;;;;;;;;;18.20;99.90;;;;;;5047769;28;20029;-68
2022/08/16 04:47:43;;;;;;;;;;;18.40;99.90;;;;;;5037636;28;19933;-68
2022/08/16 04:50:12;;;;;;;;;;;18.50;99.90;;;;;;5048910;28;19924;-68
2022/08/16 04:52:39;;;;;;;;;;;18.60;99.90;;;;;;5042431;28;19929;-69
2022/08/16 04:55:07;;;;;;;;;;;18.60;99.90;;;;;;5043334;28;20011;-66
2022/08/16 04:57:34;;;;;;;;;;;18.60;99.90;;;;;;5034158;28;20299;-68
2022/08/16 05:00:01;;;;;;;;;;;18.60;99.90;;;;;;5039719;28;19925;-69
2022/08/16 05:02:29;;;;;;;;;;;18.60;99.90;;;;;;5039754;28;19933;-68
2022/08/16 05:04:56;;;;;;;;;;;18.80;99.90;;;;;;5038924;28;19935;-69
2022/08/16 05:07:24;;;;;;;;;;;18.90;99.90;;;;;;5045027;28;19947;-69
2022/08/16 05:09:51;;;;;;;;;;;18.90;99.90;;;;;;5047020;28;20402;-69
2022/08/16 05:12:17;;;;;;;;;;;18.90;99.90;;;;;;5036092;28;19933;-69
2022/08/16 05:14:44;;;;;;;;;;;19.00;99.90;;;;;;5040763;28;19973;-69
2022/08/16 05:17:11;;;;;;;;;;;19.00;99.90;;;;;;5046151;28;19968;-69
2022/08/16 05:19:38;;;;;;;;;;;19.00;99.90;;;;;;5040737;28;20036;-69
2022/08/16 05:22:04;;;;;;;;;;;19.00;99.90;;;;;;5040568;28;19925;-69
2022/08/16 05:24:32;;;;;;;;;;;19.10;99.90;;;;;;5040418;28;19931;-70
2022/08/16 05:26:59;;;;;;;;;;;19.00;99.90;;;;;;5047869;28;20011;-69
2022/08/16 05:29:26;;;;;;;;;;;19.10;99.90;;;;;;5045653;28;19932;-69
2022/08/16 05:31:52;;;;;;;;;;;19.20;99.90;;;;;;5039546;28;20008;-69
2022/08/16 05:34:20;;;;;;;;;;;19.30;99.90;;;;;;5043228;28;19932;-69
2022/08/16 05:36:48;;;;;;;;;;;19.30;99.90;;;;;;5047251;28;19929;-69
2022/08/16 05:39:14;;;;;;;;;;;19.30;99.90;;;;;;5044079;28;19966;-69
2022/08/16 05:41:42;;;;;;;;;;;19.30;99.90;;;;;;5046331;28;20019;-69
2022/08/16 05:44:09;;;;;;;;;;;19.30;99.90;;;;;;5041614;28;20370;-69
2022/08/16 05:46:36;;;;;;;;;;;19.30;99.90;;;;;;5043787;28;19979;-69
2022/08/16 05:49:03;;;;;;;;;;;19.30;99.90;;;;;;5039172;28;19980;-70
2022/08/16 05:51:29;;;;;;;;;;;19.40;99.90;;;;;;5039529;28;20015;-69
2022/08/16 05:53:56;;;;;;;;;;;19.40;99.90;;;;;;5042024;28;19932;-69
2022/08/16 05:56:23;;;;;;;;;;;19.40;99.90;;;;;;5046195;28;19933;-69
2022/08/16 05:58:51;;;;;;;;;;;19.60;99.90;;;;;;5041163;28;20020;-69
2022/08/16 06:01:17;;;;;;;;;;;19.60;99.90;;;;;;5043160;28;20012;-69
2022/08/16 06:03:44;;;;;;;;;;;19.60;99.90;;;;;;5036557;28;19924;-68
2022/08/16 06:06:11;;;;;;;;;;;19.70;99.90;;;;;;5044449;28;19924;-68
2022/08/16 06:08:37;;;;;;;;;;;19.80;99.90;;;;;;5041091;28;20007;-68
2022/08/16 06:11:04;;;;;;;;;;;19.80;99.90;;;;;;5038824;28;19925;-67
2022/08/16 06:13:31;;;;;;;;;;;19.80;99.90;;;;;;5044412;28;19925;-68
2022/08/16 06:15:59;;;;;;;;;;;19.80;99.90;;;;;;5039982;28;20388;-68
2022/08/16 06:18:26;;;;;;;;;;;19.80;99.90;;;;;;5037446;28;20008;-68
2022/08/16 06:20:52;;;;;;;;;;;19.80;99.90;;;;;;5036902;28;20016;-68
2022/08/16 06:23:19;;;;;;;;;;;19.90;99.90;;;;;;5043535;28;19924;-68
2022/08/16 06:25:46;;;;;;;;;;;20.00;99.90;;;;;;5040221;28;21024;-67
2022/08/16 06:28:12;;;;;;;;;;;20.10;99.90;;;;;;5036962;28;19929;-68
2022/08/16 06:30:40;;;;;;;;;;;20.20;99.90;;;;;;5041983;28;20004;-68
2022/08/16 06:33:08;;;;;;;;;;;20.20;99.90;;;;;;5041285;28;19932;-68
2022/08/16 06:35:35;;;;;;;;;;;20.40;99.90;;;;;;5039334;28;19925;-66
2022/08/16 06:38:02;;;;;;;;;;;20.50;99.90;;;;;;5039591;28;19975;-67
2022/08/16 06:40:28;;;;;;;;;;;20.70;99.90;;;;;;5042872;28;19960;-68
2022/08/16 06:42:55;;;;;;;;;;;20.80;99.90;;;;;;5043168;28;19925;-67
2022/08/16 06:45:22;;;;;;;;;;;20.90;99.90;;;;;;5046974;28;20304;-67
2022/08/16 06:47:49;;;;;;;;;;;21.00;99.90;;;;;;5035450;28;20020;-68
2022/08/16 06:50:18;;;;;;;;;;;21.00;99.90;;;;;;5036917;28;20031;-69
2022/08/16 06:52:45;;;;;;;;;;;21.00;99.90;;;;;;5044224;28;20399;-68
2022/08/16 06:55:12;;;;;;;;;;;21.00;99.90;;;;;;5045683;28;19929;-67
2022/08/16 06:57:39;;;;;;;;;;;21.00;99.90;;;;;;5040702;28;19935;-67
2022/08/16 07:00:11;;;;;;;;;;;21.10;99.90;;;;;;5039326;28;20020;-67
2022/08/16 07:02:38;;;;;;;;;;;21.20;99.90;;;;;;5041404;28;20402;-67
2022/08/16 07:05:06;;;;;;;;;;;21.20;99.90;;;;;;5043296;28;20004;-68
2022/08/16 07:07:34;;;;;;;;;;;21.40;99.90;;;;;;5043919;28;19925;-69
2022/08/16 07:10:02;;;;;;;;;;;21.80;99.90;;;;;;5039154;28;19925;-68
2022/08/16 07:12:29;;;;;;;;;;;23.50;99.90;;;;;;5039216;28;19971;-68
2022/08/16 07:14:56;;;;;;;;;;;25.60;98.80;;;;;;5038560;28;20020;-68
2022/08/16 07:17:23;;;;;;;;;;;26.90;93.00;;;;;;5032232;28;19939;-68
2022/08/16 07:19:51;;;;;;;;;;;27.60;90.20;;;;;;5037427;28;19964;-68
2022/08/16 07:22:18;;;;;;;;;;;28.30;84.30;;;;;;5040600;28;19928;-69
2022/08/16 07:24:45;;;;;;;;;;;;;;;;;;5036092;28;19939;-69
2022/08/16 07:27:12;;;;;;;;;;;;;;;;;;5035637;28;20123;-68
2022/08/16 07:29:39;;;;;;;;;;;;;;;;;;5042584;28;19931;-71
2022/08/16 07:32:06;;;;;;;;;;;;;;;;;;5032470;28;20356;-68
2022/08/16 07:34:34;;;;;;;;;;;30.70;96.50;;;;;;5039263;28;20008;-69
2022/08/16 07:37:06;;;;;;;;;;;31.00;95.50;;;;;;5034904;28;20028;-69
2022/08/16 07:39:33;;;;;;;;;;;31.70;87.40;;;;;;5041833;28;19960;-69
2022/08/16 07:41:59;;;;;;;;;;;30.80;82.90;;;;;;5032794;28;19984;-69
2022/08/16 07:44:27;;;;;;;;;;;30.50;70.50;;;;;;5044074;28;19929;-67
2022/08/16 07:46:53;;;;;;;;;;;30.30;70.70;;;;;;5041848;28;20007;-68
2022/08/16 07:49:20;;;;;;;;;;;31.10;69.30;;;;;;5033336;28;20016;-67
2022/08/16 07:51:48;;;;;;;;;;;30.50;69.60;;;;;;5044116;28;19950;-67
2022/08/16 07:54:15;;;;;;;;;;;30.90;69.10;;;;;;5036066;28;19946;-68
2022/08/16 07:56:42;;;;;;;;;;;31.30;67.30;;;;;;5037543;28;20430;-68
2022/08/16 07:59:09;;;;;;;;;;;32.10;73.50;;;;;;5041535;28;19932;-66
2022/08/16 08:01:37;;;;;;;;;;;32.40;69.60;;;;;;5042772;28;20003;-69
2022/08/16 08:04:04;;;;;;;;;;;32.40;68.70;;;;;;5043223;28;19944;-68
2022/08/16 08:06:31;;;;;;;;;;;32.60;34.80;;;;;;5039765;28;20007;-67
2022/08/16 08:09:00;;;;;;;;;;;33.60;30.30;;;;;;5039451;28;20338;-69
2022/08/16 08:11:28;;;;;;;;;;;33.50;29.40;;;;;;5036261;28;19931;-68
2022/08/16 08:13:56;;;;;;;;;;;34.50;27.00;;;;;;5048528;28;20020;-67
2022/08/16 08:16:23;;;;;;;;;;;35.20;24.10;;;;;;5041934;28;19936;-66
2022/08/16 08:18:49;;;;;;;;;;;34.80;22.30;;;;;;5041533;28;21166;-68
2022/08/16 08:21:18;;;;;;;;;;;33.90;22.30;;;;;;5046945;28;19924;-69
2022/08/16 08:23:46;;;;;;;;;;;33.80;26.30;;;;;;5043754;28;19932;-69
2022/08/16 08:26:14;;;;;;;;;;;33.90;24.80;;;;;;5043067;28;19924;-69
2022/08/16 08:28:41;;;;;;;;;;;33.90;24.90;;;;;;5038806;28;20459;-69
2022/08/16 08:31:07;;;;;;;;;;;32.80;26.70;;;;;;5040168;28;19939;-70
2022/08/16 08:33:34;;;;;;;;;;;32.10;26.60;;;;;;5039729;28;19975;-70
2022/08/16 08:36:01;;;;;;;;;;;31.60;27.70;;;;;;5033013;28;19932;-70
2022/08/16 08:38:30;;;;;;;;;;;31.40;28.30;;;;;;5042480;28;20028;-69
2022/08/16 08:40:57;;;;;;;;;;;31.30;28.80;;;;;;5040621;28;19925;-69
2022/08/16 08:43:25;;;;;;;;;;;32.10;28.20;;;;;;5039400;28;19928;-70
2022/08/16 08:45:53;;;;;;;;;;;32.90;26.00;;;;;;5037125;28;20447;-68
2022/08/16 08:48:19;;;;;;;;;;;32.70;23.40;;;;;;5038888;28;20384;-69
2022/08/16 08:50:46;;;;;;;;;;;33.10;24.80;;;;;;5042660;28;19931;-68
2022/08/16 08:53:13;;;;;;;;;;;33.30;24.70;;;;;;5042627;28;20628;-67
2022/08/16 08:55:41;;;;;;;;;;;33.10;24.90;;;;;;5037813;28;19947;-70
2022/08/16 08:58:07;;;;;;;;;;;32.50;24.80;;;;;;5041961;28;19939;-69
2022/08/16 09:00:36;;;;;;;;;;;31.90;24.40;;;;;;5040767;28;19925;-69
2022/08/16 09:03:03;;;;;;;;;;;31.60;26.90;;;;;;5035254;28;19937;-69
2022/08/16 09:05:29;;;;;;;;;;;31.50;26.90;;;;;;5042766;28;20015;-69
2022/08/16 09:07:56;;;;;;;;;;;31.30;26.90;;;;;;5037686;28;19986;-69
2022/08/16 09:10:23;;;;;;;;;;;31.00;27.80;;;;;;5046148;28;19931;-68
2022/08/16 09:12:49;;;;;;;;;;;30.60;27.60;;;;;;5044870;28;20011;-70
2022/08/16 09:15:17;;;;;;;;;;;31.10;25.30;;;;;;5045586;28;20371;-69
2022/08/16 09:17:45;;;;;;;;;;;31.50;25.20;;;;;;5041002;28;19924;-66
2022/08/16 09:20:13;;;;;;;;;;;31.10;24.30;;;;;;5043661;28;19948;-69
2022/08/16 09:22:40;;;;;;;;;;;30.30;26.60;;;;;;5038957;28;19983;-70
2022/08/16 09:25:07;;;;;;;;;;;30.50;25.80;;;;;;5035352;28;19933;-69
2022/08/16 09:27:35;;;;;;;;;;;31.10;25.50;;;;;;5039275;28;19933;-69
2022/08/16 09:30:01;;;;;;;;;;;31.90;25.60;;;;;;5037611;28;20384;-69
2022/08/16 09:32:28;;;;;;;;;;;32.80;23.40;;;;;;5033743;28;19968;-69
2022/08/16 09:34:57;;;;;;;;;;;32.90;22.80;;;;;;5040299;28;19928;-69
2022/08/16 09:37:23;;;;;;;;;;;33.20;22.10;;;;;;5033864;28;20326;-68
2022/08/16 09:39:50;;;;;;;;;;;32.90;23.00;;;;;;5030071;28;20031;-69
2022/08/16 09:42:17;;;;;;;;;;;33.20;22.80;;;;;;5048520;22;19925;-68
2022/08/16 09:44:44;;;;;;;;;;;33.40;24.10;;;;;;5093145;28;19928;-68
2022/08/16 09:47:11;;;;;;;;;;;33.10;22.60;;;;;;5097481;28;19994;-69
2022/08/16 09:49:37;;;;;;;;;;;33.40;23.60;;;;;;5096778;28;20757;-64
2022/08/16 09:52:06;;;;;;;;;;;33.20;23.60;;;;;;5092832;28;19931;-68
2022/08/16 09:54:33;;;;;;;;;;;33.30;23.90;;;;;;5098604;28;20010;-69
2022/08/16 09:57:00;;;;;;;;;;;33.50;23.00;;;;;;5094509;28;19924;-68
2022/08/16 09:59:26;;;;;;;;;;;33.10;22.20;;;;;;5097917;28;19923;-69
2022/08/16 10:01:54;;;;;;;;;;;32.50;25.30;;;;;;5095733;28;19932;-68
2022/08/16 10:04:21;;;;;;;;;;;32.50;25.10;;;;;;5093104;28;19936;-68
2022/08/16 10:06:48;;;;;;;;;;;32.40;25.30;;;;;;5092710;28;19928;-68
2022/08/16 10:09:16;;;;;;;;;;;32.10;25.30;;;;;;5095991;28;20030;-68
2022/08/16 10:14:29;;;;;;;;;;;30.90;25.50;;;;;;5102062;28;19980;-68
2022/08/16 10:16:57;;;;;;;;;;;30.20;26.20;;;;;;5096138;28;19932;-68
2022/08/16 10:19:23;;;;;;;;;;;30.10;26.70;;;;;;5091589;28;20040;-68
2022/08/16 10:21:50;;;;;;;;;;;30.00;27.20;;;;;;5098624;28;19962;-68
2022/08/16 10:24:18;;;;;;;;;;;29.60;29.40;;;;;;5096448;28;20270;-68
2022/08/16 10:26:45;;;;;;;;;;;29.50;27.50;;;;;;5103477;28;20504;-68
2022/08/16 10:29:13;;;;;;;;;;;29.60;27.50;;;;;;5105779;28;19924;-68
2022/08/16 10:31:40;;;;;;;;;;;29.60;27.30;;;;;;5102615;28;20386;-69
2022/08/16 10:34:06;;;;;;;;;;;29.60;27.80;;;;;;5102410;28;20015;-67
2022/08/16 10:36:33;;;;;;;;;;;29.60;28.30;;;;;;5106562;28;19924;-68
2022/08/16 10:39:00;;;;;;;;;;;29.40;27.70;;;;;;5103094;28;20020;-67
2022/08/16 10:41:28;;;;;;;;;;;29.10;27.70;;;;;;5104935;28;19963;-68
2022/08/16 10:43:54;;;;;;;;;;;28.80;28.20;;;;;;5109844;28;19930;-69
2022/08/16 10:46:21;;;;;;;;;;;28.70;28.10;;;;;;5104310;28;19924;-68
2022/08/16 10:48:48;;;;;;;;;;;28.70;28.40;;;;;;5097119;28;20113;-68
2022/08/16 10:51:14;;;;;;;;;;;28.80;28.30;;;;;;5096096;28;19950;-68
2022/08/16 10:53:41;;;;;;;;;;;28.70;28.50;;;;;;5100419;28;20014;-68
2022/08/16 10:56:09;;;;;;;;;;;29.10;28.20;;;;;;5104552;28;19931;-66
2022/08/16 10:58:37;;;;;;;;;;;29.50;27.20;;;;;;5107209;28;19924;-66
2022/08/16 11:01:05;;;;;;;;;;;29.50;26.50;;;;;;5104541;28;19924;-65
2022/08/16 11:03:32;;;;;;;;;;;29.50;26.20;;;;;;5104601;28;19932;-65
2022/08/16 11:05:59;;;;;;;;;;;29.60;26.00;;;;;;5098839;28;20382;-66
2022/08/16 11:08:26;;;;;;;;;;;29.60;26.20;;;;;;5101258;28;19930;-68
2022/08/16 11:10:52;;;;;;;;;;;29.80;25.70;;;;;;5109419;28;19939;-67
2022/08/16 11:13:20;;;;;;;;;;;29.50;25.50;;;;;;5104081;28;20023;-68
2022/08/16 11:15:48;;;;;;;;;;;29.10;26.10;;;;;;5102301;28;19932;-68
2022/08/16 11:18:15;;;;;;;;;;;29.20;26.50;;;;;;5109055;28;19971;-68
2022/08/16 11:20:43;;;;;;;;;;;29.10;26.50;;;;;;5103893;28;20032;-66
2022/08/16 11:23:10;;;;;;;;;;;28.70;27.10;;;;;;5105269;28;20478;-66
2022/08/16 11:25:37;;;;;;;;;;;28.50;27.10;;;;;;5104899;28;19984;-66
2022/08/16 11:28:04;;;;;;;;;;;28.30;27.60;;;;;;5106432;28;19967;-65
2022/08/16 11:30:31;;;;;;;;;;;28.00;27.60;;;;;;5107808;28;20369;-65
2022/08/16 11:33:01;;;;;;;;;;;27.90;28.00;;;;;;5107088;28;20330;-66
2022/08/16 11:35:28;;;;;;;;;;;28.10;27.60;;;;;;5110287;28;20015;-64
2022/08/16 11:37:57;;;;;;;;;;;28.30;27.80;;;;;;5110301;28;20023;-64
2022/08/16 11:40:25;;;;;;;;;;;28.70;27.30;;;;;;5106411;28;20342;-65
2022/08/16 11:42:52;;;;;;;;;;;28.80;27.10;;;;;;5107642;28;19969;-65
2022/08/16 11:45:19;;;;;;;;;;;29.20;26.50;;;;;;5107627;28;20014;-64
2022/08/16 11:47:46;;;;;;;;;;;29.20;24.20;;;;;;5106758;28;20022;-65
2022/08/16 11:50:15;;;;;;;;;;;29.20;24.60;;;;;;5097187;28;20026;-65
2022/08/16 11:52:42;;;;;;;;;;;29.30;24.90;;;;;;5101351;28;19963;-64
2022/08/16 11:55:10;;;;;;;;;;;29.30;23.90;;;;;;5104529;28;20024;-66
2022/08/16 11:57:37;;;;;;;;;;;29.40;23.90;;;;;;5098745;28;20013;-66
2022/08/16 12:00:06;;;;;;;;;;;29.00;24.40;;;;;;5100493;28;19955;-66
2022/08/16 12:02:33;;;;;;;;;;;28.80;25.80;;;;;;5098612;28;19924;-65
2022/08/16 12:05:00;;;;;;;;;;;28.80;25.90;;;;;;5098717;28;20297;-66
2022/08/16 12:07:28;;;;;;;;;;;28.90;26.50;;;;;;5100155;28;19923;-66
2022/08/16 12:09:55;;;;;;;;;;;29.10;27.60;;;;;;5104548;28;20031;-66
2022/08/16 12:12:21;;;;;;;;;;;29.40;27.30;;;;;;5107344;28;20023;-63
2022/08/16 12:14:48;;;;;;;;;;;29.00;27.50;;;;;;5108747;28;19924;-64
2022/08/16 12:17:15;;;;;;;;;;;29.10;27.50;;;;;;5105539;28;19932;-64
2022/08/16 12:19:41;;;;;;;;;;;29.10;27.10;;;;;;5099942;28;20452;-65
2022/08/16 12:22:08;;;;;;;;;;;28.90;26.00;;;;;;5106823;28;20018;-64
2022/08/16 12:24:36;;;;;;;;;;;29.00;25.90;;;;;;5103813;28;20015;-64
2022/08/16 12:27:04;;;;;;;;;;;29.10;23.90;;;;;;5107768;28;19924;-65
2022/08/16 12:29:30;;;;;;;;;;;29.30;23.70;;;;;;5099068;28;19946;-64
2022/08/16 12:31:57;;;;;;;;;;;29.40;24.00;;;;;;5103514;28;19949;-65
2022/08/16 12:34:24;;;;;;;;;;;29.70;24.20;;;;;;5101341;28;19924;-64
2022/08/16 12:36:51;;;;;;;;;;;29.40;23.30;;;;;;5107294;28;19923;-64
2022/08/16 12:39:19;;;;;;;;;;;29.20;23.30;;;;;;5095681;28;20015;-65
2022/08/16 12:41:47;;;;;;;;;;;29.20;23.10;;;;;;5101097;28;19932;-64
2022/08/16 12:44:14;;;;;;;;;;;29.30;23.70;;;;;;5100944;28;19927;-65
2022/08/16 12:46:42;;;;;;;;;;;29.40;24.50;;;;;;5100141;28;20411;-64
2022/08/16 12:49:10;;;;;;;;;;;29.80;23.60;;;;;;5107255;28;19959;-64
2022/08/16 12:51:39;;;;;;;;;;;29.70;24.50;;;;;;5107136;28;20026;-63
2022/08/16 12:54:08;;;;;;;;;;;30.00;24.90;;;;;;5107830;28;19923;-65
2022/08/16 12:56:37;;;;;;;;;;;30.30;25.00;;;;;;5101680;28;20254;-64
2022/08/16 12:59:08;;;;;;;;;;;30.70;24.70;;;;;;5101162;28;19924;-64
2022/08/16 13:01:35;;;;;;;;;;;30.90;24.50;;;;;;5102511;28;19969;-64
2022/08/16 13:04:03;;;;;;;;;;;30.80;23.90;;;;;;5103034;28;20443;-64
2022/08/16 13:06:30;;;;;;;;;;;30.90;23.30;;;;;;5097654;28;19957;-65
2022/08/16 13:08:58;;;;;;;;;;;30.70;23.60;;;;;;5107179;28;20014;-65
2022/08/16 13:11:32;;;;;;;;;;;30.40;24.40;;;;;;5107227;28;20065;-65
2022/08/16 13:13:59;;;;;;;;;;;30.10;24.80;;;;;;5101778;28;20007;-66
2022/08/16 13:16:27;;;;;;;;;;;29.70;24.90;;;;;;5106356;28;21943;-65
2022/08/16 13:18:53;;;;;;;;;;;29.70;25.10;;;;;;5102332;28;19973;-65
2022/08/16 13:21:20;;;;;;;;;;;30.00;25.30;;;;;;5094734;28;20006;-65
2022/08/16 13:23:47;;;;;;;;;;;30.10;25.30;;;;;;5094101;27;20279;-65
2022/08/16 13:26:14;;;;;;;;;;;30.20;25.50;;;;;;5102251;28;20035;-64
2022/08/16 13:28:41;;;;;;;;;;;30.30;25.40;;;;;;5093750;28;19931;-65
2022/08/16 13:31:07;;;;;;;;;;;30.30;24.70;;;;;;5108214;28;19930;-64
2022/08/16 13:33:36;;;;;;;;;;;30.40;25.00;;;;;;5101583;28;20674;-64
2022/08/16 13:36:04;;;;;;;;;;;30.30;25.10;;;;;;5106257;28;19923;-65
2022/08/16 13:38:31;;;;;;;;;;;30.20;25.30;;;;;;5102197;28;19967;-64
2022/08/16 13:40:57;;;;;;;;;;;30.40;25.00;;;;;;5102819;28;20174;-65
2022/08/16 13:43:25;;;;;;;;;;;31.20;24.50;;;;;;5106038;28;19988;-65
2022/08/16 13:45:52;;;;;;;;;;;30.70;22.60;;;;;;5103473;28;20421;-64
2022/08/16 13:48:18;;;;;;;;;;;30.20;22.90;;;;;;5099559;28;20337;-65
2022/08/16 13:50:47;;;;;;;;;;;30.10;23.60;;;;;;5109487;28;19924;-64
2022/08/16 13:53:13;;;;;;;;;;;30.10;23.30;;;;;;5103368;28;20345;-65
2022/08/16 13:55:40;;;;;;;;;;;30.20;24.30;;;;;;5102281;28;19923;-65
2022/08/16 13:58:07;;;;;;;;;;;30.10;25.10;;;;;;5092449;28;19928;-65
2022/08/16 14:00:35;;;;;;;;;;;30.20;25.20;;;;;;5103338;28;19924;-65
2022/08/16 14:03:01;;;;;;;;;;;30.30;24.80;;;;;;5106125;28;19934;-65
2022/08/16 14:05:28;;;;;;;;;;;30.20;24.20;;;;;;5106025;28;19936;-65
2022/08/16 14:07:56;;;;;;;;;;;29.90;23.90;;;;;;5104455;28;19928;-65
2022/08/16 14:10:23;;;;;;;;;;;29.90;24.00;;;;;;5102204;28;20030;-64
2022/08/16 14:12:50;;;;;;;;;;;29.80;24.10;;;;;;5104705;28;19924;-65
2022/08/16 14:15:17;;;;;;;;;;;29.80;24.40;;;;;;5100643;28;20290;-65
2022/08/16 14:17:44;;;;;;;;;;;29.90;24.40;;;;;;5104937;28;19924;-65
2022/08/16 14:20:11;;;;;;;;;;;30.10;24.30;;;;;;5104817;28;19931;-65
2022/08/16 14:22:38;;;;;;;;;;;30.20;24.20;;;;;;5101329;28;19932;-64